Time;durP1;ratioP1;P1;durP2;ratioP2;P2;SDS_P1;SDS_P2;PMS_P1;PMS_P2;Temp;Humidity;BMP_temperature;BMP_pressure;BME280_temperature;BME280_humidity;BME280_pressure;Samples;Min_cycle;Max_cycle;Signal;HPM_P1;HPM_P2
2021/07/19 00:02:13;;;;;;;10.65;4.00;;;;;;;17.95;81.16;101877.63;5006427;28;20050;-71
2021/07/19 00:04:41;;;;;;;10.00;4.20;;;;;;;17.91;81.05;101878.66;5007049;28;20415;-71
2021/07/19 00:07:09;;;;;;;8.05;4.05;;;;;;;17.88;81.30;101878.75;5007815;28;20515;-69
2021/07/19 00:09:35;;;;;;;10.52;4.70;;;;;;;17.87;81.11;101869.97;5012387;28;20389;-71
2021/07/19 00:12:05;;;;;;;7.70;4.05;;;;;;;17.85;81.13;101868.31;5011980;28;20060;-70
2021/07/19 00:14:32;;;;;;;7.05;3.38;;;;;;;17.87;80.87;101863.88;5004327;28;20120;-70
2021/07/19 00:16:59;;;;;;;9.73;4.07;;;;;;;17.80;81.17;101859.72;5010222;28;20507;-71
2021/07/19 00:19:25;;;;;;;9.13;4.35;;;;;;;17.75;81.27;101865.13;5012946;28;20050;-70
2021/07/19 00:21:52;;;;;;;12.95;4.15;;;;;;;17.68;81.47;101869.72;5007181;28;20050;-71
2021/07/19 00:24:18;;;;;;;7.93;3.60;;;;;;;17.59;81.88;101870.00;5013429;28;20050;-71
2021/07/19 00:26:44;;;;;;;9.25;3.95;;;;;;;17.56;81.80;101868.31;5010522;28;20050;-70
2021/07/19 00:29:12;;;;;;;10.98;3.95;;;;;;;17.64;81.63;101870.69;5004701;28;20062;-70
2021/07/19 00:31:39;;;;;;;10.20;4.10;;;;;;;17.53;81.96;101868.41;5001912;28;20057;-71
2021/07/19 00:34:07;;;;;;;10.65;3.78;;;;;;;17.58;82.13;101864.75;5009711;28;20050;-71
2021/07/19 00:36:34;;;;;;;9.52;3.60;;;;;;;17.66;81.65;101871.53;5007636;28;20163;-70
2021/07/19 00:39:01;;;;;;;10.90;3.83;;;;;;;17.71;81.71;101874.88;5013488;28;20092;-71
2021/07/19 00:41:28;;;;;;;9.55;3.90;;;;;;;17.77;81.51;101872.97;5014483;28;20058;-71
2021/07/19 00:43:54;;;;;;;13.98;4.10;;;;;;;17.77;81.78;101865.06;5004995;28;20471;-71
2021/07/19 00:46:22;;;;;;;14.48;5.07;;;;;;;17.79;82.00;101866.72;5008248;28;20518;-70
2021/07/19 00:48:49;;;;;;;10.85;4.22;;;;;;;17.79;82.56;101860.63;5010642;28;20511;-70
2021/07/19 00:51:15;;;;;;;10.52;4.97;;;;;;;17.74;82.86;101862.53;5007157;28;20178;-70
2021/07/19 00:53:42;;;;;;;9.27;4.72;;;;;;;17.68;83.16;101863.56;5009330;28;20054;-71
2021/07/19 00:56:10;;;;;;;9.80;4.90;;;;;;;17.70;83.67;101860.00;5012790;28;20046;-69
2021/07/19 00:58:38;;;;;;;13.77;4.68;;;;;;;17.71;83.19;101864.34;5000241;28;20495;-71
2021/07/19 01:01:06;;;;;;;12.10;4.65;;;;;;;17.62;83.65;101861.13;5012755;28;20042;-70
2021/07/19 01:03:34;;;;;;;8.93;4.53;;;;;;;17.51;84.19;101861.47;5012866;28;20096;-71
2021/07/19 01:06:03;;;;;;;11.32;4.70;;;;;;;17.53;83.86;101864.91;5008062;28;20050;-71
2021/07/19 01:08:29;;;;;;;10.73;4.80;;;;;;;17.47;84.21;101849.31;5012282;28;20054;-71
2021/07/19 01:10:56;;;;;;;10.70;4.90;;;;;;;17.40;84.18;101849.50;5010365;28;20459;-70
2021/07/19 01:13:23;;;;;;;9.95;4.75;;;;;;;17.37;84.47;101848.72;5004398;28;20570;-71
2021/07/19 01:15:49;;;;;;;13.10;5.03;;;;;;;17.27;84.93;101842.03;5002648;28;20518;-69
2021/07/19 01:18:16;;;;;;;9.85;5.30;;;;;;;17.25;84.91;101835.06;5014067;28;20495;-69
2021/07/19 01:20:59;;;;;;;12.35;4.68;;;;;;;17.20;85.17;101833.47;5007365;28;20105;-71
2021/07/19 01:23:39;;;;;;;11.02;4.75;;;;;;;17.13;85.36;101829.28;5001558;28;20054;-71
2021/07/19 01:26:28;;;;;;;13.23;5.50;;;;;;;17.18;85.36;101837.91;5006778;28;20115;-70
2021/07/19 01:28:58;;;;;;;10.32;4.85;;;;;;;17.21;85.22;101836.03;5004326;28;20049;-68
2021/07/19 01:31:27;;;;;;;10.40;4.80;;;;;;;17.22;84.93;101836.88;5007428;28;20463;-71
2021/07/19 01:33:58;;;;;;;9.27;4.35;;;;;;;17.25;85.08;101831.53;5005735;28;20129;-70
2021/07/19 01:36:29;;;;;;;13.18;4.97;;;;;;;17.22;84.96;101826.38;5006241;28;20146;-69
2021/07/19 01:38:56;;;;;;;16.52;4.85;;;;;;;17.20;84.90;101831.69;5011028;28;20141;-70
2021/07/19 01:41:24;;;;;;;13.77;5.15;;;;;;;17.18;84.92;101828.22;5009167;28;20492;-70
2021/07/19 01:43:51;;;;;;;9.82;4.28;;;;;;;17.17;84.91;101823.03;5007188;28;20432;-70
2021/07/19 01:46:18;;;;;;;8.65;4.68;;;;;;;17.16;84.85;101829.19;5005526;28;20057;-70
2021/07/19 01:48:46;;;;;;;11.10;5.00;;;;;;;17.08;85.17;101821.53;5007238;28;20054;-70
2021/07/19 01:51:14;;;;;;;10.45;5.57;;;;;;;17.08;85.03;101830.28;5001063;28;20527;-70
2021/07/19 01:53:42;;;;;;;8.98;5.20;;;;;;;17.06;85.25;101837.34;5010415;28;20516;-71
2021/07/19 01:56:09;;;;;;;10.65;5.35;;;;;;;16.97;84.97;101834.13;5002910;28;20137;-71
2021/07/19 01:58:36;;;;;;;10.27;5.10;;;;;;;16.76;85.64;101834.66;5008949;28;20112;-70
2021/07/19 02:01:04;;;;;;;10.88;5.40;;;;;;;16.81;85.82;101836.31;5007794;28;20149;-71
2021/07/19 02:03:32;;;;;;;11.63;5.63;;;;;;;16.76;85.65;101842.53;5009888;28;20050;-69
2021/07/19 02:06:00;;;;;;;10.85;5.25;;;;;;;16.73;85.72;101836.50;5002866;28;20500;-71
2021/07/19 02:08:27;;;;;;;10.25;5.22;;;;;;;16.58;86.29;101845.66;5007405;28;20041;-70
2021/07/19 02:10:55;;;;;;;14.45;5.80;;;;;;;16.55;86.22;101846.63;5004772;28;20120;-70
2021/07/19 02:13:23;;;;;;;10.80;5.82;;;;;;;16.54;86.18;101846.63;5010545;28;20046;-71
2021/07/19 02:15:54;;;;;;;11.70;6.65;;;;;;;16.41;86.47;101844.34;5001400;28;20500;-69
2021/07/19 02:18:23;;;;;;;12.48;5.47;;;;;;;16.48;86.26;101853.78;5012270;28;20042;-70
2021/07/19 02:20:54;;;;;;;10.35;5.53;;;;;;;16.47;86.32;101830.16;5009530;28;20080;-71
2021/07/19 02:23:22;;;;;;;8.63;5.22;;;;;;;16.44;86.31;101820.63;5010292;28;20049;-70
2021/07/19 02:25:50;;;;;;;9.10;5.38;;;;;;;16.51;86.17;101816.06;5006149;28;20050;-69
2021/07/19 02:28:17;;;;;;;12.18;5.28;;;;;;;16.48;86.01;101818.75;5010025;28;20100;-70
2021/07/19 02:30:45;;;;;;;12.13;6.25;;;;;;;16.49;85.44;101828.38;5003579;28;20054;-71
2021/07/19 02:33:12;;;;;;;9.90;5.60;;;;;;;16.40;85.75;101824.25;5007273;28;20066;-71
2021/07/19 02:35:41;;;;;;;14.32;6.13;;;;;;;16.41;85.61;101828.59;5003043;28;20134;-71
2021/07/19 02:38:11;;;;;;;12.52;6.28;;;;;;;16.42;85.56;101832.91;5011445;28;20050;-71
2021/07/19 02:40:39;;;;;;;10.93;5.38;;;;;;;16.40;85.59;101834.75;5001484;28;20508;-70
2021/07/19 02:43:08;;;;;;;15.52;6.15;;;;;;;16.38;85.26;101828.66;5006259;28;20045;-71
2021/07/19 02:45:38;;;;;;;16.35;6.35;;;;;;;16.40;85.13;101826.88;5009964;28;20050;-70
2021/07/19 02:48:06;;;;;;;9.93;6.40;;;;;;;16.34;85.22;101824.38;5003537;28;20101;-70
2021/07/19 02:50:34;;;;;;;10.13;5.72;;;;;;;16.40;85.41;101823.38;4997689;28;20504;-70
2021/07/19 02:53:04;;;;;;;11.35;5.55;;;;;;;16.57;87.55;101817.66;4996852;28;20439;-70
2021/07/19 02:55:33;;;;;;;11.60;5.63;;;;;;;16.68;85.48;101835.75;4998252;28;20069;-70
2021/07/19 02:58:00;;;;;;;12.63;6.13;;;;;;;16.72;84.17;101840.88;4998086;28;20054;-70
2021/07/19 03:00:28;;;;;;;9.02;5.70;;;;;;;16.61;83.72;101837.72;5003378;28;20100;-69
2021/07/19 03:02:58;;;;;;;12.13;6.50;;;;;;;16.54;84.48;101837.00;5000781;28;20045;-69
2021/07/19 03:05:28;;;;;;;12.30;6.53;;;;;;;16.51;84.56;101839.69;4998895;28;20057;-70
2021/07/19 03:07:57;;;;;;;11.60;6.22;;;;;;;16.45;84.76;101838.09;5007745;28;20562;-71
2021/07/19 03:10:25;;;;;;;11.80;5.97;;;;;;;16.43;84.63;101836.41;5004050;28;20046;-71
2021/07/19 03:12:58;;;;;;;11.18;6.38;;;;;;;16.42;84.81;101832.91;5012398;28;20054;-70
2021/07/19 03:15:27;;;;;;;11.23;6.82;;;;;;;16.41;84.65;101840.84;5003718;28;20053;-71
2021/07/19 03:17:54;;;;;;;12.98;6.28;;;;;;;16.37;84.46;101841.84;5009144;28;20046;-71
2021/07/19 03:20:21;;;;;;;12.40;6.68;;;;;;;16.31;84.40;101841.09;5007824;28;20048;-71
2021/07/19 03:22:52;;;;;;;13.05;6.97;;;;;;;16.30;84.56;101836.72;5010103;28;20050;-70
2021/07/19 03:25:23;;;;;;;15.25;7.43;;;;;;;16.23;84.50;101847.41;5004162;28;20080;-70
2021/07/19 03:27:50;;;;;;;12.70;6.80;;;;;;;16.17;84.87;101840.56;4999649;28;20061;-69
2021/07/19 03:30:19;;;;;;;13.90;7.47;;;;;;;16.19;84.92;101837.91;5004502;28;20057;-71
2021/07/19 03:32:47;;;;;;;12.55;6.90;;;;;;;16.21;84.84;101838.75;5003064;28;20049;-71
2021/07/19 03:35:15;;;;;;;12.65;7.03;;;;;;;16.17;84.88;101833.56;5006254;28;20056;-70
2021/07/19 03:37:43;;;;;;;12.93;6.78;;;;;;;16.20;84.85;101843.13;4996199;28;20522;-71
2021/07/19 03:40:10;;;;;;;12.82;7.28;;;;;;;16.21;84.55;101846.63;5002483;28;20420;-70
2021/07/19 03:42:37;;;;;;;15.02;7.72;;;;;;;16.06;84.80;101846.09;5006477;28;20046;-70
2021/07/19 03:45:05;;;;;;;15.85;7.22;;;;;;;16.04;84.79;101841.78;4999701;28;20046;-70
2021/07/19 03:47:35;;;;;;;14.05;7.60;;;;;;;15.99;85.31;101836.66;5007835;28;20512;-70
2021/07/19 03:50:03;;;;;;;18.33;7.85;;;;;;;16.00;85.34;101841.00;5002346;28;20099;-67
2021/07/19 03:52:30;;;;;;;12.07;7.78;;;;;;;15.93;85.28;101849.91;5010030;28;20132;-70
2021/07/19 03:54:58;;;;;;;14.95;7.97;;;;;;;15.94;85.29;101852.50;5006204;28;20050;-71
2021/07/19 03:57:26;;;;;;;16.02;8.07;;;;;;;15.98;84.94;101846.25;5010293;28;20479;-71
2021/07/19 03:59:55;;;;;;;16.45;8.40;;;;;;;15.97;85.13;101849.78;5007966;28;20432;-68
2021/07/19 04:02:22;;;;;;;13.13;7.63;;;;;;;15.92;85.34;101842.94;5008637;28;20045;-69
2021/07/19 04:05:01;;;;;;;14.25;8.57;;;;;;;15.88;85.85;101852.63;5001808;28;20076;-69
2021/07/19 04:07:28;;;;;;;38.47;10.15;;;;;;;15.90;85.74;101855.25;4999363;28;20471;-69
2021/07/19 04:09:55;;;;;;;13.55;7.47;;;;;;;15.92;85.57;101859.53;5003181;28;20042;-70
2021/07/19 04:12:22;;;;;;;15.93;9.02;;;;;;;15.93;85.90;101855.16;5004057;28;20038;-70
2021/07/19 04:14:48;;;;;;;15.35;8.27;;;;;;;16.12;84.62;101853.78;5002043;28;20046;-70
2021/07/19 04:17:15;;;;;;;15.73;8.02;;;;;;;16.23;84.23;101858.81;4994746;28;20054;-70
2021/07/19 04:19:44;;;;;;;14.13;7.97;;;;;;;16.30;83.85;101855.13;5001820;28;20050;-69
2021/07/19 04:22:12;;;;;;;17.42;9.68;;;;;;;16.38;83.30;101851.41;4997430;28;20551;-71
2021/07/19 04:24:39;;;;;;;14.15;8.45;;;;;;;16.38;83.18;101852.31;4998341;28;20046;-69
2021/07/19 04:27:06;;;;;;;16.98;9.35;;;;;;;16.43;82.92;101844.31;4998950;28;20050;-71
2021/07/19 04:29:33;;;;;;;14.80;8.95;;;;;;;16.54;82.87;101849.25;4996554;28;20053;-70
2021/07/19 04:32:00;;;;;;;14.98;8.63;;;;;;;16.67;82.16;101849.81;5003312;28;20046;-71
2021/07/19 04:34:28;;;;;;;16.73;9.13;;;;;;;16.75;81.41;101858.34;5004775;28;20427;-71
2021/07/19 04:36:58;;;;;;;17.00;8.35;;;;;;;16.84;81.17;101870.34;5002368;28;20486;-72
2021/07/19 04:39:26;;;;;;;14.10;8.40;;;;;;;16.90;80.94;101871.06;5000858;28;20065;-71
2021/07/19 04:41:53;;;;;;;16.80;8.77;;;;;;;16.91;80.69;101875.41;5002849;28;20049;-71
2021/07/19 04:44:20;;;;;;;18.33;8.68;;;;;;;16.99;80.44;101875.25;5004319;28;20433;-69
2021/07/19 04:46:46;;;;;;;16.27;9.35;;;;;;;17.05;79.81;101869.78;5004214;28;20046;-72
2021/07/19 04:49:13;;;;;;;18.60;9.15;;;;;;;17.16;79.57;101871.25;5002300;28;20046;-71
2021/07/19 04:51:40;;;;;;;14.98;8.82;;;;;;;17.25;78.75;101871.00;4999007;28;20045;-69
2021/07/19 04:54:08;;;;;;;14.68;8.43;;;;;;;17.29;78.50;101879.66;5049870;23;20071;-70
2021/07/19 04:56:38;;;;;;;15.23;8.93;;;;;;;17.34;78.82;101881.25;5038255;28;20063;-69
2021/07/19 04:59:07;;;;;;;21.40;9.18;;;;;;;17.47;78.39;101867.72;5044957;28;20533;-70
2021/07/19 05:01:34;;;;;;;13.75;8.68;;;;;;;17.43;77.95;101879.22;5050779;28;20048;-67
2021/07/19 05:04:03;;;;;;;17.70;9.48;;;;;;;17.52;78.04;101874.56;5050731;28;20045;-70
2021/07/19 05:06:31;;;;;;;18.35;9.10;;;;;;;17.65;77.18;101880.31;5046628;28;20098;-68
2021/07/19 05:08:59;;;;;;;16.60;9.10;;;;;;;17.69;76.99;101876.69;5050145;28;20060;-70
2021/07/19 05:11:26;;;;;;;14.07;8.55;;;;;;;17.83;76.55;101885.91;5044604;28;20063;-70
2021/07/19 05:13:54;;;;;;;12.68;9.10;;;;;;;17.84;76.24;101885.88;5041158;28;20077;-69
2021/07/19 05:16:21;;;;;;;17.05;9.55;;;;;;;17.93;75.82;101884.72;5044881;28;20045;-69
2021/07/19 05:18:49;;;;;;;17.45;9.27;;;;;;;18.09;75.36;101892.16;5051190;28;20044;-69
2021/07/19 05:21:15;;;;;;;16.08;8.82;;;;;;;18.09;74.89;101894.81;5048412;28;20041;-68
2021/07/19 05:23:45;;;;;;;13.57;8.98;;;;;;;18.06;74.78;101898.41;5044094;28;20059;-70
2021/07/19 05:26:14;;;;;;;16.85;9.50;;;;;;;18.12;74.82;101895.56;5041323;28;20626;-70
2021/07/19 05:28:40;;;;;;;17.65;9.93;;;;;;;18.12;75.13;101894.69;5049044;28;20045;-70
2021/07/19 05:31:08;;;;;;;18.13;9.75;;;;;;;18.02;74.61;101902.03;5049444;28;20124;-69
2021/07/19 05:33:34;;;;;;;16.52;9.02;;;;;;;17.99;75.23;101894.22;5045321;28;20601;-68
2021/07/19 05:36:01;;;;;;;17.58;9.80;;;;;;;18.07;75.37;101899.25;5045342;28;20080;-70
2021/07/19 05:38:29;;;;;;;13.57;9.77;;;;;;;18.15;74.31;101903.38;5041247;28;20053;-69
2021/07/19 05:40:56;;;;;;;14.70;8.57;;;;;;;18.06;74.96;101901.03;5048914;28;20049;-69
2021/07/19 05:43:22;;;;;;;17.80;9.10;;;;;;;18.18;74.57;101897.13;5046583;28;20055;-69
2021/07/19 05:45:49;;;;;;;18.45;10.02;;;;;;;17.97;75.38;101896.03;5047412;28;20041;-68
2021/07/19 05:48:17;;;;;;;21.17;9.18;;;;;;;18.30;74.66;101899.38;5046228;28;20083;-70
2021/07/19 05:50:43;;;;;;;19.88;9.57;;;;;;;18.57;73.40;101903.72;5038613;28;20052;-68
2021/07/19 05:53:10;;;;;;;16.77;9.13;;;;;;;18.75;72.91;101899.59;5048557;28;20052;-69
2021/07/19 05:55:37;;;;;;;15.18;9.52;;;;;;;18.98;72.14;101909.38;5048761;28;20128;-68
2021/07/19 05:58:04;;;;;;;14.48;9.10;;;;;;;19.07;71.08;101901.13;5046030;28;20053;-69
2021/07/19 06:00:31;;;;;;;16.00;9.07;;;;;;;19.10;71.16;101900.16;5047897;28;20502;-69
2021/07/19 06:02:57;;;;;;;16.65;8.80;;;;;;;19.14;70.91;101906.19;5038958;28;20041;-69
2021/07/19 06:05:26;;;;;;;14.63;9.43;;;;;;;19.01;70.89;101911.06;5044674;28;20128;-68
2021/07/19 06:07:52;;;;;;;18.00;9.68;;;;;;;18.91;72.14;101914.00;5045525;28;20056;-69
2021/07/19 06:10:19;;;;;;;16.02;9.60;;;;;;;19.01;70.86;101913.69;5047920;28;20156;-70
2021/07/19 06:12:46;;;;;;;14.73;8.85;;;;;;;19.03;71.19;101915.34;5045484;28;20048;-68
2021/07/19 06:15:13;;;;;;;16.15;9.35;;;;;;;18.80;71.55;101914.34;5045637;28;20060;-68
2021/07/19 06:17:40;;;;;;;17.50;8.93;;;;;;;18.69;72.95;101913.84;5045929;28;20058;-69
2021/07/19 06:20:10;;;;;;;14.77;8.82;;;;;;;18.61;73.21;101916.78;5047725;28;20052;-68
2021/07/19 06:22:39;;;;;;;14.48;8.50;;;;;;;18.59;73.23;101910.69;5046746;28;20045;-69
2021/07/19 06:25:07;;;;;;;17.02;9.65;;;;;;;18.22;74.14;101906.63;5049244;28;20052;-69
2021/07/19 06:27:34;;;;;;;18.45;10.18;;;;;;;18.08;74.70;101912.34;5048196;28;20048;-69
2021/07/19 06:30:00;;;;;;;19.67;9.77;;;;;;;17.95;75.33;101911.84;5044971;28;20522;-70
2021/07/19 06:32:27;;;;;;;18.63;8.73;;;;;;;18.11;75.09;101914.06;5044151;28;20052;-70
2021/07/19 06:34:53;;;;;;;14.95;8.82;;;;;;;18.01;75.81;101909.09;5042795;28;20052;-73
2021/07/19 06:37:19;;;;;;;21.80;10.57;;;;;;;18.18;75.41;101907.66;5048543;28;20524;-67
2021/07/19 06:39:47;;;;;;;17.80;8.75;;;;;;;18.45;74.79;101910.28;5043312;28;20046;-69
2021/07/19 06:42:14;;;;;;;17.15;8.70;;;;;;;18.59;74.03;101921.25;5042334;28;20040;-70
2021/07/19 06:44:40;;;;;;;14.65;8.20;;;;;;;18.37;73.80;101918.44;5041011;28;20111;-69
2021/07/19 06:47:07;;;;;;;17.00;8.93;;;;;;;18.16;74.92;101913.00;5043988;28;20041;-69
2021/07/19 06:49:33;;;;;;;18.77;9.25;;;;;;;18.19;75.48;101917.28;5044358;28;20053;-69
2021/07/19 06:51:59;;;;;;;17.88;8.55;;;;;;;18.24;75.18;101917.13;5044566;28;20048;-69
2021/07/19 06:54:26;;;;;;;15.25;8.43;;;;;;;18.22;74.99;101913.69;5041310;28;20053;-68
2021/07/19 06:56:53;;;;;;;20.25;8.93;;;;;;;18.21;75.58;101909.34;5044426;28;20056;-68
2021/07/19 06:59:20;;;;;;;16.80;8.18;;;;;;;18.28;74.87;101906.47;5046090;28;20045;-69
2021/07/19 07:01:47;;;;;;;20.50;8.18;;;;;;;18.54;75.04;101915.25;5041783;28;20056;-69
2021/07/19 07:04:13;;;;;;;14.88;8.35;;;;;;;18.72;73.20;101918.16;5044875;28;20041;-70
2021/07/19 07:06:40;;;;;;;16.10;7.75;;;;;;;18.72;73.23;101913.75;5052599;28;20101;-70
2021/07/19 07:09:06;;;;;;;17.48;8.00;;;;;;;18.79;71.79;101917.91;5048521;28;20422;-70
2021/07/19 07:11:33;;;;;;;11.68;7.38;;;;;;;18.76;72.57;101914.50;5048376;28;20049;-70
2021/07/19 07:14:01;;;;;;;15.77;7.65;;;;;;;18.80;72.57;101913.50;5039214;28;20053;-70
2021/07/19 07:16:28;;;;;;;14.27;7.90;;;;;;;18.71;72.16;101914.69;5047300;28;20070;-69
2021/07/19 07:18:55;;;;;;;16.42;7.82;;;;;;;18.68;71.35;101914.78;5043161;28;20049;-69
2021/07/19 07:21:22;;;;;;;15.85;7.72;;;;;;;18.79;71.71;101924.97;5039621;28;20065;-69
2021/07/19 07:23:48;;;;;;;14.75;7.90;;;;;;;18.74;71.05;101922.50;5045912;28;20052;-70
2021/07/19 07:26:15;;;;;;;13.63;7.15;;;;;;;18.70;71.57;101920.84;5045474;28;20044;-70
2021/07/19 07:28:41;;;;;;;14.02;7.82;;;;;;;18.86;71.03;101922.97;5044587;28;20506;-69
2021/07/19 07:31:11;;;;;;;10.55;6.78;;;;;;;18.70;69.84;101923.50;5046987;28;20056;-70
2021/07/19 07:33:37;;;;;;;15.63;7.07;;;;;;;18.62;70.75;101929.03;5040489;28;20048;-70
2021/07/19 07:36:05;;;;;;;11.32;7.40;;;;;;;18.68;70.75;101932.38;5039110;28;20053;-70
2021/07/19 07:38:31;;;;;;;12.60;7.25;;;;;;;18.92;70.75;101925.38;5041668;28;20049;-70
2021/07/19 07:40:58;;;;;;;15.13;7.80;;;;;;;18.77;70.41;101921.50;5047830;28;20049;-69
2021/07/19 07:43:25;;;;;;;14.35;7.35;;;;;;;18.74;71.13;101916.34;5044518;28;20051;-70
2021/07/19 07:45:51;;;;;;;16.75;7.55;;;;;;;18.88;71.52;101916.72;5043874;28;20049;-69
2021/07/19 07:48:19;;;;;;;13.25;7.53;;;;;;;18.97;71.49;101919.97;5044304;28;20041;-70
2021/07/19 07:50:46;;;;;;;13.27;7.53;;;;;;;19.03;69.38;101925.03;5040792;28;20041;-70
2021/07/19 07:53:13;;;;;;;15.77;7.20;;;;;;;18.94;68.00;101927.06;5047425;28;20494;-69
2021/07/19 07:55:39;;;;;;;13.55;7.30;;;;;;;19.00;67.49;101931.28;5042084;28;20056;-70
2021/07/19 07:58:07;;;;;;;16.73;8.85;;;;;;;18.96;68.19;101927.03;5040621;28;20053;-70
2021/07/19 08:00:34;;;;;;;12.90;7.45;;;;;;;19.01;68.23;101929.50;5043065;28;20056;-69
2021/07/19 08:03:00;;;;;;;15.95;7.28;;;;;;;19.21;68.74;101927.03;5048512;28;20041;-68
2021/07/19 08:05:28;;;;;;;13.60;7.75;;;;;;;19.30;67.00;101930.22;5042752;28;20041;-71
2021/07/19 08:07:55;;;;;;;11.13;7.25;;;;;;;19.36;65.67;101915.03;5045924;28;20046;-67
2021/07/19 08:10:21;;;;;;;13.85;7.30;;;;;;;19.31;66.47;101924.03;5039285;28;20049;-69
2021/07/19 08:12:48;;;;;;;13.85;7.50;;;;;;;19.40;66.83;101924.53;5044576;28;20048;-69
2021/07/19 08:15:16;;;;;;;17.83;8.05;;;;;;;19.66;64.92;101919.19;5044448;28;20041;-67
2021/07/19 08:17:43;;;;;;;13.77;7.18;;;;;;;19.55;64.85;101916.97;5037991;28;20045;-68
2021/07/19 08:20:11;;;;;;;12.32;7.65;;;;;;;19.54;64.05;101921.38;5047605;28;20045;-70
2021/07/19 08:22:39;;;;;;;13.27;7.22;;;;;;;19.64;64.55;101915.75;5043455;28;20080;-67
2021/07/19 08:25:06;;;;;;;13.63;7.40;;;;;;;19.72;64.27;101921.59;5040950;28;20041;-69
2021/07/19 08:27:32;;;;;;;12.43;7.40;;;;;;;19.36;62.99;101919.44;5048323;28;20057;-70
2021/07/19 08:29:59;;;;;;;12.90;7.03;;;;;;;19.41;64.39;101925.41;5047134;28;20075;-69
2021/07/19 08:32:25;;;;;;;11.60;6.93;;;;;;;19.27;64.58;101929.41;5049402;28;20052;-67
2021/07/19 08:34:52;;;;;;;12.05;7.03;;;;;;;19.29;64.75;101925.88;5044442;28;20442;-69
2021/07/19 08:37:18;;;;;;;13.30;7.10;;;;;;;19.22;66.28;101930.50;5047863;28;20078;-67
2021/07/19 08:39:46;;;;;;;10.98;7.60;;;;;;;19.35;64.40;101920.34;5049646;28;20053;-69
2021/07/19 08:42:13;;;;;;;13.15;7.10;;;;;;;19.33;65.10;101932.72;5047956;28;20099;-69
2021/07/19 08:44:41;;;;;;;12.27;6.93;;;;;;;19.36;64.49;101932.63;5052989;28;20048;-68
2021/07/19 08:47:08;;;;;;;12.27;7.65;;;;;;;19.47;62.99;101933.09;5047330;28;20068;-67
2021/07/19 08:49:36;;;;;;;10.88;6.90;;;;;;;19.48;61.86;101924.25;5040008;28;20046;-68
2021/07/19 08:52:02;;;;;;;15.35;8.27;;;;;;;19.55;61.88;101928.38;5046663;28;20041;-67
2021/07/19 08:54:33;;;;;;;10.15;7.43;;;;;;;19.78;63.21;101924.00;5045012;28;20076;-69
2021/07/19 08:57:02;;;;;;;14.07;8.02;;;;;;;19.63;61.89;101914.03;5044218;28;20045;-67
2021/07/19 08:59:29;;;;;;;14.82;7.47;;;;;;;19.86;61.44;101915.81;5038775;28;20052;-70
2021/07/19 09:01:59;;;;;;;12.60;7.60;;;;;;;19.68;60.02;101917.34;5043896;28;20045;-69
2021/07/19 09:04:26;;;;;;;11.40;7.75;;;;;;;19.72;60.52;101916.31;5041355;28;20410;-68
2021/07/19 09:06:53;;;;;;;15.00;7.22;;;;;;;19.87;60.68;101914.88;5039896;28;20053;-68
2021/07/19 09:09:29;;;;;;;11.65;7.28;;;;;;;20.01;60.55;101904.63;5039618;28;20506;-69
2021/07/19 09:11:56;;;;;;;11.20;6.82;;;;;;;20.21;59.84;101912.69;5042020;28;20049;-71
2021/07/19 09:14:25;;;;;;;12.15;7.45;;;;;;;20.20;58.97;101901.22;5041048;28;20051;-69
2021/07/19 09:16:52;;;;;;;13.75;7.68;;;;;;;20.28;59.73;101907.06;5036946;28;20053;-69
2021/07/19 09:19:20;;;;;;;11.43;7.05;;;;;;;20.19;60.48;101905.66;5041477;28;20045;-69
2021/07/19 09:21:48;;;;;;;14.15;8.68;;;;;;;20.03;60.65;101904.56;5039150;28;20406;-69
2021/07/19 09:24:17;;;;;;;15.43;8.88;;;;;;;20.11;60.77;101902.50;5042421;28;20052;-69
2021/07/19 09:26:45;;;;;;;11.75;7.55;;;;;;;19.93;61.46;101909.38;5040676;28;20057;-66
2021/07/19 09:29:14;;;;;;;14.10;8.80;;;;;;;19.67;61.79;101905.91;5040593;28;20425;-69
2021/07/19 09:31:44;;;;;;;14.15;8.80;;;;;;;19.43;62.91;101910.38;5038976;28;20545;-68
2021/07/19 09:34:13;;;;;;;14.52;7.90;;;;;;;19.06;64.34;101903.81;5041166;28;20055;-70
2021/07/19 09:36:53;;;;;;;13.15;8.48;;;;;;;18.91;65.58;101908.72;5039806;28;20442;-68
2021/07/19 09:39:20;;;;;;;16.50;8.10;;;;;;;18.83;65.57;101910.75;5044859;28;20052;-69
2021/07/19 09:41:46;;;;;;;14.77;8.38;;;;;;;18.87;66.10;101907.09;5046200;28;20060;-67
2021/07/19 09:44:13;;;;;;;14.00;7.85;;;;;;;19.05;66.37;101905.63;5046497;28;20045;-68
2021/07/19 09:46:42;;;;;;;17.05;8.68;;;;;;;19.15;65.73;101902.63;5040796;28;20106;-67
2021/07/19 09:49:08;;;;;;;14.52;8.38;;;;;;;19.29;65.24;101905.59;5041339;28;20049;-69
2021/07/19 09:51:36;;;;;;;17.05;9.35;;;;;;;19.41;65.29;101899.88;5042949;28;20075;-67
2021/07/19 09:54:10;;;;;;;13.13;8.60;;;;;;;19.74;64.79;101896.00;5040133;28;20057;-68
2021/07/19 09:56:36;;;;;;;15.30;8.13;;;;;;;20.03;64.56;101896.63;5040846;28;20132;-73
2021/07/19 09:59:08;;;;;;;13.70;8.45;;;;;;;20.35;63.23;101894.44;5040335;28;20403;-69
2021/07/19 10:01:36;;;;;;;13.05;8.07;;;;;;;20.66;62.09;101880.75;5040166;28;20075;-65
2021/07/19 10:04:09;;;;;;;16.05;9.02;;;;;;;21.09;59.92;101887.75;5039877;28;20132;-69
2021/07/19 10:06:36;;;;;;;14.65;8.27;;;;;;;21.37;58.60;101892.66;5040060;28;20057;-67
2021/07/19 10:09:06;;;;;;;16.95;10.35;;;;;;;21.53;57.55;101899.88;5043874;28;20107;-68
2021/07/19 10:11:34;;;;;;;14.55;9.40;;;;;;;21.51;56.61;101902.59;5040874;28;20048;-67
2021/07/19 10:14:01;;;;;;;13.82;8.70;;;;;;;21.67;57.21;101894.81;5039245;28;20148;-68
2021/07/19 10:16:30;;;;;;;15.52;8.75;;;;;;;21.73;55.83;101883.91;5041290;28;20041;-69
2021/07/19 10:18:57;;;;;;;15.23;8.82;;;;;;;21.77;56.43;101883.78;5049129;28;20056;-68
2021/07/19 10:21:29;;;;;;;14.50;8.65;;;;;;;22.00;56.11;101875.59;5042858;28;20443;-67
2021/07/19 10:24:00;;;;;;;16.42;9.07;;;;;;;22.13;55.94;101872.28;5041552;28;20049;-68
2021/07/19 10:26:27;;;;;;;15.75;9.63;;;;;;;21.99;54.51;101879.16;5046396;28;20128;-68
2021/07/19 10:28:54;;;;;;;18.17;9.32;;;;;;;22.18;55.08;101867.63;5051188;28;20137;-69
2021/07/19 10:31:21;;;;;;;15.93;8.98;;;;;;;22.07;54.61;101867.31;5044583;28;20057;-67
2021/07/19 10:33:49;;;;;;;15.63;10.15;;;;;;;21.77;55.19;101868.72;5047275;28;20114;-68
2021/07/19 10:36:22;;;;;;;17.40;9.73;;;;;;;21.59;55.65;101873.16;5044018;28;20059;-69
2021/07/19 10:38:51;;;;;;;16.30;9.85;;;;;;;21.35;56.28;101875.13;5040812;28;20057;-69
2021/07/19 10:41:22;;;;;;;16.13;9.52;;;;;;;21.49;56.96;101871.84;5048953;28;20049;-71
2021/07/19 10:43:59;;;;;;;16.08;9.60;;;;;;;21.34;56.23;101870.78;5039207;28;20057;-67
2021/07/19 10:46:26;;;;;;;14.10;9.27;;;;;;;21.52;56.16;101869.03;5044499;28;20064;-69
2021/07/19 10:49:09;;;;;;;14.02;8.98;;;;;;;21.49;56.66;101863.91;5038799;28;20144;-68
2021/07/19 10:51:43;;;;;;;15.18;9.68;;;;;;;21.25;57.34;101864.09;5043088;28;20053;-69
2021/07/19 10:54:19;;;;;;;14.32;9.85;;;;;;;21.31;58.22;101860.31;5042741;28;20128;-66
2021/07/19 10:56:47;;;;;;;16.08;8.57;;;;;;;21.48;57.68;101857.72;5045565;28;20445;-68
2021/07/19 10:59:27;;;;;;;14.70;10.02;;;;;;;21.81;56.82;101858.88;5047649;28;20422;-71
2021/07/19 11:01:55;;;;;;;14.65;9.30;;;;;;;21.92;56.10;101855.69;5042172;28;20045;-69
2021/07/19 11:04:23;;;;;;;14.68;9.48;;;;;;;21.81;56.21;101856.22;5037957;28;20099;-69
2021/07/19 11:06:56;;;;;;;16.30;9.48;;;;;;;21.78;56.94;101854.56;5043212;28;20534;-69
2021/07/19 11:09:35;;;;;;;14.35;9.32;;;;;;;21.56;57.22;101854.72;5043858;28;21441;-71
2021/07/19 11:12:11;;;;;;;16.05;9.27;;;;;;;21.41;58.26;101856.31;5037653;28;20115;-69
2021/07/19 11:14:45;;;;;;;16.63;9.10;;;;;;;21.43;57.35;101855.28;5042605;28;20113;-68
2021/07/19 11:17:12;;;;;;;;;;;;;;;21.71;57.16;101853.16;5047715;28;20499;-70
2021/07/19 11:19:40;;;;;;;13.50;8.90;;;;;;;22.03;56.16;101853.38;5042029;28;20425;-70
2021/07/19 11:22:07;;;;;;;17.88;10.48;;;;;;;22.34;56.18;101859.78;5050201;28;20128;-69